createdAt,value
2018-01-23T00:02:00.289Z,64.14
2018-01-23T00:04:27.785Z,64.04
2018-01-23T00:06:55.344Z,64.53
2018-01-23T00:09:22.854Z,63.98
2018-01-23T00:11:50.380Z,64.67
2018-01-23T00:14:17.908Z,63.76
2018-01-23T00:16:45.542Z,64.46
2018-01-23T00:19:13.153Z,64.37
2018-01-23T00:21:40.699Z,64.09
2018-01-23T00:24:08.205Z,64.22
2018-01-23T00:26:35.740Z,64.92
2018-01-23T00:29:04.124Z,65.19
2018-01-23T00:31:31.960Z,65.48
2018-01-23T00:33:59.456Z,66.04
2018-01-23T00:36:26.960Z,65.15
2018-01-23T00:38:54.537Z,65.08
2018-01-23T00:41:22.032Z,64.97
2018-01-23T00:43:49.597Z,65.13
2018-01-23T00:46:17.214Z,64.44
2018-01-23T00:48:44.721Z,64.74
2018-01-23T00:51:12.253Z,63.84
2018-01-23T00:53:39.758Z,64.03
2018-01-23T00:56:07.654Z,63.84
2018-01-23T00:58:35.150Z,63.72
2018-01-23T01:01:02.658Z,63.63
2018-01-23T01:03:30.229Z,63.45
2018-01-23T01:05:57.724Z,63.98
2018-01-23T01:08:25.441Z,63.80
2018-01-23T01:10:52.945Z,63.69
2018-01-23T01:13:20.452Z,63.62
2018-01-23T01:15:48.032Z,63.97
2018-01-23T01:18:15.583Z,62.99
2018-01-23T01:20:43.347Z,63.33
2018-01-23T01:23:10.949Z,63.30
2018-01-23T01:25:38.454Z,63.32
2018-01-23T01:28:06.024Z,63.03
2018-01-23T01:30:33.528Z,63.61
2018-01-23T01:33:01.246Z,63.44
2018-01-23T01:35:28.747Z,62.95
2018-01-23T01:37:56.376Z,62.96
2018-01-23T01:40:23.915Z,62.86
2018-01-23T01:42:51.412Z,62.60
2018-01-23T01:45:19.145Z,62.99
2018-01-23T01:47:46.649Z,62.50
2018-01-23T01:50:14.173Z,62.60
2018-01-23T01:52:41.717Z,62.69
2018-01-23T01:55:09.215Z,62.69
2018-01-23T01:57:37.146Z,63.06
2018-01-23T02:00:04.658Z,62.72
2018-01-23T02:02:32.165Z,63.19
2018-01-23T02:04:59.724Z,62.47
2018-01-23T02:07:27.224Z,63.58
2018-01-23T02:09:54.777Z,63.03
2018-01-23T02:12:22.293Z,62.97
2018-01-23T02:14:49.793Z,62.48
2018-01-23T02:17:17.326Z,62.54
2018-01-23T02:19:44.832Z,62.72
2018-01-23T02:22:12.530Z,62.99
2018-01-23T02:24:40.037Z,63.38
2018-01-23T02:27:07.543Z,63.30
2018-01-23T02:29:35.093Z,62.98
2018-01-23T02:32:02.592Z,62.15
2018-01-23T02:34:30.501Z,62.51
2018-01-23T02:36:58.002Z,62.17
2018-01-23T02:39:25.650Z,62.20
2018-01-23T02:41:53.207Z,61.78
2018-01-23T02:44:20.767Z,61.49
2018-01-23T02:46:48.315Z,62.09
2018-01-23T02:49:15.826Z,61.75
2018-01-23T02:51:43.342Z,61.40
2018-01-23T02:54:10.900Z,61.87
2018-01-23T02:56:38.408Z,62.25
2018-01-23T02:59:05.975Z,62.28
2018-01-23T03:01:33.476Z,61.76
2018-01-23T03:04:00.986Z,61.40
2018-01-23T03:06:28.517Z,61.00
2018-01-23T03:08:56.028Z,61.58
2018-01-23T03:11:23.564Z,61.61
2018-01-23T03:13:51.089Z,61.60
2018-01-23T03:16:18.642Z,62.08
2018-01-23T03:18:46.184Z,61.86
2018-01-23T03:21:13.693Z,61.34
2018-01-23T03:23:42.328Z,62.11
2018-01-23T03:26:09.835Z,62.02
2018-01-23T03:28:37.342Z,61.61
2018-01-23T03:31:04.903Z,61.83
2018-01-23T03:33:32.461Z,61.48
2018-01-23T03:36:00.431Z,61.93
2018-01-23T03:38:27.933Z,61.66
2018-01-23T03:40:55.435Z,61.85
2018-01-23T03:43:23.009Z,62.57
2018-01-23T03:45:50.509Z,61.74
2018-01-23T03:48:18.200Z,61.96
2018-01-23T03:50:45.713Z,62.27
2018-01-23T03:53:13.241Z,61.71
2018-01-23T03:55:40.802Z,61.97
2018-01-23T03:58:08.306Z,61.11
2018-01-23T04:00:35.924Z,61.33
2018-01-23T04:03:03.479Z,61.77
2018-01-23T04:05:30.976Z,61.73
2018-01-23T04:07:58.509Z,61.82
2018-01-23T04:10:26.005Z,61.38
2018-01-23T04:12:53.569Z,60.92
2018-01-23T04:15:21.076Z,61.57
2018-01-23T04:17:48.629Z,61.17
2018-01-23T04:20:16.138Z,61.46
2018-01-23T04:22:43.649Z,61.25
2018-01-23T04:25:11.422Z,60.83
2018-01-23T04:27:38.967Z,60.74
2018-01-23T04:30:06.473Z,61.04
2018-01-23T04:32:34.000Z,61.28
2018-01-23T04:35:01.644Z,61.55
2018-01-23T04:37:29.320Z,61.49
2018-01-23T04:39:56.865Z,62.79
2018-01-23T04:42:24.372Z,62.51
2018-01-23T04:44:51.904Z,62.19
2018-01-23T04:47:19.441Z,62.21
2018-01-23T04:49:47.103Z,62.17
2018-01-23T04:52:14.613Z,61.54
2018-01-23T04:54:42.134Z,61.96
2018-01-23T04:57:09.689Z,62.05
2018-01-23T04:59:37.195Z,62.43
2018-01-23T05:02:04.898Z,63.02
2018-01-23T05:04:32.571Z,62.75
2018-01-23T05:07:00.073Z,62.59
2018-01-23T05:09:27.642Z,62.13
2018-01-23T05:11:55.145Z,60.99
2018-01-23T05:14:23.277Z,62.04
2018-01-23T05:16:50.845Z,61.45
2018-01-23T05:19:18.372Z,61.29
2018-01-23T05:21:45.912Z,61.48
2018-01-23T05:24:13.421Z,61.22
2018-01-23T05:26:41.103Z,61.26
2018-01-23T05:29:08.609Z,61.48
2018-01-23T05:31:36.142Z,60.97
2018-01-23T05:34:03.673Z,61.13
2018-01-23T05:36:31.177Z,61.00
2018-01-23T05:38:59.078Z,60.80
2018-01-23T05:41:26.584Z,60.73
2018-01-23T05:43:54.104Z,60.89
2018-01-23T05:46:21.680Z,61.63
2018-01-23T05:48:49.217Z,60.73
2018-01-23T05:51:16.756Z,60.47
2018-01-23T05:53:44.270Z,60.41
2018-01-23T05:56:11.765Z,60.29
2018-01-23T05:58:39.295Z,61.43
2018-01-23T06:01:06.828Z,62.15
2018-01-23T06:03:34.489Z,63.96
2018-01-23T06:06:01.992Z,63.69
2018-01-23T06:08:29.620Z,63.27
2018-01-23T06:10:57.149Z,63.37
2018-01-23T06:13:25.648Z,63.17
2018-01-23T06:15:53.541Z,63.69
2018-01-23T06:18:21.073Z,63.98
2018-01-23T06:20:48.577Z,64.16
2018-01-23T06:23:16.101Z,64.63
2018-01-23T06:25:43.605Z,64.17
2018-01-23T06:28:11.257Z,64.98
2018-01-23T06:30:38.761Z,65.39
2018-01-23T06:33:06.447Z,65.52
2018-01-23T06:35:33.986Z,64.94
2018-01-23T06:38:01.485Z,64.88
2018-01-23T06:40:29.045Z,65.00
2018-01-23T06:42:56.573Z,64.13
2018-01-23T06:45:24.122Z,63.29
2018-01-23T06:47:51.857Z,62.85
2018-01-23T06:50:19.364Z,62.69
2018-01-23T06:52:46.889Z,62.97
2018-01-23T06:55:14.459Z,63.33
2018-01-23T06:57:42.019Z,63.31
2018-01-23T07:00:09.577Z,63.39
2018-01-23T07:02:37.080Z,63.48
2018-01-23T07:05:04.588Z,63.29
2018-01-23T07:07:32.357Z,63.27
2018-01-23T07:09:59.856Z,63.30
2018-01-23T07:12:27.365Z,63.93
2018-01-23T07:14:54.931Z,64.20
2018-01-23T07:17:22.426Z,64.20
2018-01-23T07:19:49.947Z,63.89
2018-01-23T07:22:17.711Z,64.01
2018-01-23T07:24:45.221Z,64.16
2018-01-23T07:27:12.757Z,64.29
2018-01-23T07:29:40.290Z,63.67
2018-01-23T07:32:07.793Z,64.98
2018-01-23T07:34:35.724Z,64.30
2018-01-23T07:37:03.224Z,64.24
2018-01-23T07:39:30.731Z,63.75
2018-01-23T07:41:58.264Z,63.36
2018-01-23T07:44:25.786Z,63.08
2018-01-23T07:46:53.422Z,63.07
2018-01-23T07:49:20.933Z,65.34
2018-01-23T07:51:48.438Z,63.74
2018-01-23T07:54:15.973Z,63.24
2018-01-23T07:56:43.485Z,63.81
2018-01-23T07:59:11.026Z,62.97
2018-01-23T08:01:38.532Z,62.76
2018-01-23T08:04:06.066Z,61.73
2018-01-23T08:06:33.593Z,62.64
2018-01-23T08:09:01.131Z,62.92
2018-01-23T08:11:28.968Z,61.89
2018-01-23T08:13:56.554Z,61.66
2018-01-23T08:16:24.053Z,62.80
2018-01-23T08:18:51.584Z,62.70
2018-01-23T08:21:19.129Z,63.86
2018-01-23T08:23:46.861Z,63.18
2018-01-23T08:26:14.384Z,63.85
2018-01-23T08:28:42.728Z,63.68
2018-01-23T08:31:10.257Z,62.58
2018-01-23T08:33:37.749Z,62.67
2018-01-23T08:36:05.477Z,63.00
2018-01-23T08:38:32.982Z,63.55
2018-01-23T08:41:00.481Z,62.90
2018-01-23T08:43:28.009Z,63.05
2018-01-23T08:45:55.546Z,63.20
2018-01-23T08:48:23.101Z,63.65
2018-01-23T08:50:50.600Z,62.82
2018-01-23T08:53:18.103Z,62.91
2018-01-23T08:55:45.673Z,61.33
2018-01-23T08:58:13.170Z,62.61
2018-01-23T09:00:40.730Z,62.19
2018-01-23T09:03:08.247Z,61.65
2018-01-23T09:05:35.749Z,61.22
2018-01-23T09:08:03.276Z,61.52
2018-01-23T09:10:30.822Z,62.32
2018-01-23T09:12:58.436Z,61.46
2018-01-23T09:15:25.941Z,61.01
2018-01-23T09:17:53.437Z,59.99
2018-01-23T09:20:20.979Z,60.01
2018-01-23T09:22:48.489Z,60.58
2018-01-23T09:25:16.177Z,60.24
2018-01-23T09:27:44.124Z,60.67
2018-01-23T09:30:11.617Z,60.55
2018-01-23T09:32:39.162Z,59.92
2018-01-23T09:35:06.721Z,61.29
2018-01-23T09:37:34.279Z,59.56
2018-01-23T09:40:01.787Z,60.09
2018-01-23T09:42:29.294Z,59.44
2018-01-23T09:44:56.854Z,59.79
2018-01-23T09:47:24.353Z,59.59
2018-01-23T09:49:52.075Z,59.02
2018-01-23T09:52:19.577Z,58.18
2018-01-23T09:54:47.081Z,58.71
2018-01-23T09:57:14.649Z,58.64
2018-01-23T09:59:42.143Z,58.37
2018-01-23T10:02:09.668Z,59.02
2018-01-23T10:04:37.234Z,57.72
2018-01-23T10:07:04.738Z,57.49
2018-01-23T10:09:32.268Z,57.01
2018-01-23T10:11:59.767Z,58.33
2018-01-23T10:14:27.433Z,57.73
2018-01-23T10:16:54.933Z,56.43
2018-01-23T10:19:22.441Z,56.74
2018-01-23T10:21:49.960Z,57.79
2018-01-23T10:24:17.470Z,57.57
2018-01-23T10:26:45.102Z,58.21
2018-01-23T10:29:12.624Z,57.63
2018-01-23T10:31:40.171Z,58.37
2018-01-23T10:34:07.728Z,58.98
2018-01-23T10:36:35.301Z,57.78
2018-01-23T10:39:02.847Z,57.36
2018-01-23T10:41:30.406Z,58.58
2018-01-23T10:43:57.913Z,58.20
2018-01-23T10:46:25.454Z,57.98
2018-01-23T10:48:52.968Z,57.22
2018-01-23T10:51:20.747Z,57.99
2018-01-23T10:53:48.304Z,57.03
2018-01-23T10:56:16.785Z,55.96
2018-01-23T10:58:44.343Z,57.04
2018-01-23T11:01:11.848Z,57.10
2018-01-23T11:03:39.542Z,55.80
2018-01-23T11:06:07.047Z,55.88
2018-01-23T11:08:34.552Z,54.93
2018-01-23T11:11:02.076Z,53.89
2018-01-23T11:13:29.581Z,53.09
2018-01-23T11:15:57.359Z,52.82
2018-01-23T11:18:24.855Z,52.61
2018-01-23T11:20:52.362Z,53.21
2018-01-23T11:23:20.037Z,53.30
2018-01-23T11:25:47.533Z,52.66
2018-01-23T11:28:15.166Z,52.18
2018-01-23T11:30:42.732Z,50.93
2018-01-23T11:33:10.682Z,50.93
2018-01-23T11:35:38.243Z,51.35
2018-01-23T11:38:05.786Z,51.10
2018-01-23T11:40:33.637Z,50.08
2018-01-23T11:43:01.153Z,48.92
2018-01-23T11:45:28.682Z,49.19
2018-01-23T11:47:56.244Z,47.86
2018-01-23T11:50:23.757Z,38.95
2018-01-23T11:52:51.425Z,35.32
2018-01-23T11:55:18.964Z,32.47
2018-01-23T11:57:46.517Z,25.75
2018-01-23T12:00:14.246Z,23.68
2018-01-23T12:02:41.752Z,23.97
2018-01-23T12:05:09.262Z,24.27
2018-01-23T12:07:37.009Z,26.50
2018-01-23T12:10:04.517Z,30.37
2018-01-23T12:12:32.021Z,31.67
2018-01-23T12:14:59.569Z,30.73
2018-01-23T12:17:27.073Z,29.12
2018-01-23T12:19:54.612Z,29.37
2018-01-23T12:22:22.292Z,31.68
2018-01-23T12:24:49.831Z,33.88
2018-01-23T12:27:17.339Z,37.91
2018-01-23T12:29:45.257Z,39.37
2018-01-23T12:32:12.765Z,41.08
2018-01-23T12:34:40.273Z,43.14
2018-01-23T12:37:07.909Z,44.59
2018-01-23T12:39:35.420Z,45.39
2018-01-23T12:42:02.951Z,45.80
2018-01-23T12:44:30.690Z,46.23
2018-01-23T12:46:58.200Z,45.93
2018-01-23T12:49:25.713Z,45.14
2018-01-23T12:51:53.292Z,44.50
2018-01-23T12:54:20.800Z,44.45
2018-01-23T12:56:48.375Z,44.68
2018-01-23T12:59:15.967Z,47.04
2018-01-23T13:01:43.532Z,46.78
2018-01-23T13:04:11.085Z,46.75
2018-01-23T13:06:38.950Z,46.92
2018-01-23T13:09:06.510Z,48.25
2018-01-23T13:11:34.076Z,48.93
2018-01-23T13:14:01.645Z,48.84
2018-01-23T13:16:29.188Z,49.34
2018-01-23T13:18:56.698Z,50.29
2018-01-23T13:21:24.241Z,49.93
2018-01-23T13:23:51.753Z,51.20
2018-01-23T13:26:19.266Z,50.90
2018-01-23T13:28:46.881Z,51.88
2018-01-23T13:31:14.441Z,50.44
2018-01-23T13:33:42.001Z,50.47
2018-01-23T13:36:09.537Z,49.79
2018-01-23T13:38:37.943Z,49.05
2018-01-23T13:41:05.494Z,49.16
2018-01-23T13:43:34.078Z,49.09
2018-01-23T13:46:01.590Z,48.80
2018-01-23T13:48:29.112Z,48.68
2018-01-23T13:50:56.660Z,46.81
2018-01-23T13:53:24.208Z,45.73
2018-01-23T13:55:51.719Z,47.02
2018-01-23T13:58:19.299Z,47.76
2018-01-23T14:00:46.821Z,48.62
2018-01-23T14:03:14.333Z,48.97
2018-01-23T14:05:41.906Z,49.43
2018-01-23T14:08:09.488Z,49.83
2018-01-23T14:10:37.026Z,49.95
2018-01-23T14:13:04.560Z,49.48
2018-01-23T14:15:32.142Z,50.13
2018-01-23T14:17:59.804Z,50.16
2018-01-23T14:20:27.362Z,50.40
2018-01-23T14:22:54.921Z,50.10
2018-01-23T14:25:22.426Z,49.39
2018-01-23T14:27:49.973Z,49.84
2018-01-23T14:30:17.496Z,49.19
2018-01-23T14:32:45.157Z,49.66
2018-01-23T14:35:12.716Z,49.65
2018-01-23T14:37:40.229Z,49.25
2018-01-23T14:40:07.785Z,49.26
2018-01-23T14:42:35.297Z,49.29
2018-01-23T14:45:02.809Z,50.43
2018-01-23T14:47:30.345Z,51.05
2018-01-23T14:49:57.889Z,51.44
2018-01-23T14:52:25.529Z,52.08
2018-01-23T14:54:53.086Z,52.53
2018-01-23T14:57:20.589Z,52.92
2018-01-23T14:59:49.025Z,53.49
2018-01-23T15:02:16.994Z,54.61
2018-01-23T15:04:44.560Z,54.22
2018-01-23T15:07:12.065Z,53.98
2018-01-23T15:09:39.577Z,55.49
2018-01-23T15:12:07.163Z,54.66
2018-01-23T15:14:34.742Z,53.86
2018-01-23T15:17:02.292Z,54.45
2018-01-23T15:19:29.852Z,55.79
2018-01-23T15:21:57.398Z,54.73
2018-01-23T15:24:24.970Z,55.39
2018-01-23T15:26:52.600Z,55.46
2018-01-23T15:29:20.469Z,55.05
2018-01-23T15:31:48.013Z,54.63
2018-01-23T15:34:15.568Z,54.28
2018-01-23T15:36:43.123Z,53.93
2018-01-23T15:39:10.891Z,54.78
2018-01-23T15:41:39.065Z,54.43
2018-01-23T15:44:06.625Z,54.76
2018-01-23T15:46:34.127Z,54.48
2018-01-23T15:49:01.946Z,54.14
2018-01-23T15:51:29.614Z,55.35
2018-01-23T15:53:57.348Z,55.57
2018-01-23T15:56:25.033Z,54.43
2018-01-23T15:58:52.607Z,55.29
2018-01-23T16:01:20.459Z,54.68
2018-01-23T16:03:48.120Z,53.87
2018-01-23T16:06:15.989Z,54.35
2018-01-23T16:08:43.546Z,54.64
2018-01-23T16:11:11.105Z,54.58
2018-01-23T16:13:38.871Z,54.16
2018-01-23T16:16:06.437Z,53.99
2018-01-23T16:18:34.919Z,53.99
2018-01-23T16:21:02.469Z,54.06
2018-01-23T16:23:30.082Z,53.87
2018-01-23T16:25:58.097Z,53.56
2018-01-23T16:28:25.760Z,53.85
2018-01-23T16:30:53.728Z,53.88
2018-01-23T16:33:21.516Z,53.82
2018-01-23T16:35:49.154Z,54.14
2018-01-23T16:38:16.815Z,55.36
2018-01-23T16:40:44.374Z,55.22
2018-01-23T16:43:12.144Z,56.11
2018-01-23T16:45:39.903Z,54.91
2018-01-23T16:48:07.566Z,55.08
2018-01-23T16:50:35.123Z,55.00
2018-01-23T16:53:02.739Z,54.73
2018-01-23T16:55:30.429Z,54.60
2018-01-23T16:57:58.210Z,54.96
2018-01-23T17:00:25.766Z,55.13
2018-01-23T17:02:53.305Z,55.95
2018-01-23T17:05:20.819Z,55.87
2018-01-23T17:07:48.520Z,55.38
2018-01-23T17:10:16.024Z,55.74
2018-01-23T17:12:43.564Z,55.97
2018-01-23T17:15:11.106Z,56.02
2018-01-23T17:17:38.655Z,56.15
2018-01-23T17:20:06.477Z,55.75
2018-01-23T17:22:34.020Z,56.10
2018-01-23T17:25:01.742Z,56.09
2018-01-23T17:27:29.453Z,56.51
2018-01-23T17:29:57.053Z,57.30
2018-01-23T17:32:25.327Z,56.32
2018-01-23T17:34:52.930Z,57.87
2018-01-23T17:37:20.487Z,57.38
2018-01-23T17:39:48.120Z,57.68
2018-01-23T17:42:16.120Z,57.30
2018-01-23T17:44:43.700Z,57.69
2018-01-23T17:47:11.337Z,57.79
2018-01-23T17:49:38.897Z,57.16
2018-01-23T17:52:06.456Z,58.51
2018-01-23T17:54:34.030Z,58.20
2018-01-23T17:57:01.584Z,59.51
2018-01-23T17:59:29.089Z,59.39
2018-01-23T18:01:56.614Z,59.01
2018-01-23T18:04:24.152Z,59.74
2018-01-23T18:06:51.651Z,59.36
2018-01-23T18:09:19.349Z,59.26
2018-01-23T18:11:46.862Z,59.38
2018-01-23T18:14:14.456Z,59.54
2018-01-23T18:16:42.050Z,59.81
2018-01-23T18:19:09.709Z,60.12
2018-01-23T18:21:37.472Z,60.42
2018-01-23T18:24:05.038Z,60.38
2018-01-23T18:26:32.796Z,60.25
2018-01-23T18:29:00.412Z,60.03
2018-01-23T18:31:30.162Z,61.38
2018-01-23T18:33:58.150Z,61.12
2018-01-23T18:36:27.233Z,60.71
2018-01-23T18:38:55.109Z,60.46
2018-01-23T18:41:23.021Z,59.98
2018-01-23T18:43:51.469Z,60.87
2018-01-23T18:46:20.130Z,60.95
2018-01-23T18:48:47.911Z,60.41
2018-01-23T18:51:15.977Z,60.60
2018-01-23T18:53:44.344Z,60.72
2018-01-23T18:56:13.173Z,59.79
2018-01-23T18:58:41.423Z,60.37
2018-01-23T19:01:09.331Z,60.42
2018-01-23T19:03:37.465Z,59.77
2018-01-23T19:06:05.620Z,60.02
2018-01-23T19:08:33.589Z,60.47
2018-01-23T19:11:02.045Z,61.00
2018-01-23T19:13:29.953Z,60.80
2018-01-23T19:15:57.806Z,60.71
2018-01-23T19:18:25.623Z,62.60
2018-01-23T19:20:53.383Z,61.47
2018-01-23T19:23:21.303Z,61.23
2018-01-23T19:25:49.062Z,61.29
2018-01-23T19:28:16.841Z,61.15
2018-01-23T19:30:44.811Z,61.53
2018-01-23T19:33:13.482Z,61.60
2018-01-23T19:35:41.450Z,61.32
2018-01-23T19:38:09.532Z,60.97
2018-01-23T19:40:38.616Z,61.12
2018-01-23T19:43:06.586Z,61.21
2018-01-23T19:45:34.554Z,61.20
2018-01-23T19:48:02.392Z,62.23
2018-01-23T19:50:30.203Z,61.62
2018-01-23T19:52:58.153Z,61.47
2018-01-23T19:55:27.556Z,60.68
2018-01-23T19:57:55.747Z,60.40
2018-01-23T20:00:23.799Z,59.83
2018-01-23T20:02:51.670Z,60.05
2018-01-23T20:05:20.361Z,59.83
2018-01-23T20:07:48.353Z,59.88
2018-01-23T20:10:17.297Z,58.65
2018-01-23T20:12:45.384Z,58.12
2018-01-23T20:15:18.511Z,59.25
2018-01-23T20:17:48.803Z,59.53
2018-01-23T20:20:18.123Z,58.87
2018-01-23T20:22:46.373Z,58.97
2018-01-23T20:25:14.624Z,58.67
2018-01-23T20:27:43.491Z,58.59
2018-01-23T20:30:12.055Z,59.54
2018-01-23T20:32:41.174Z,59.34
2018-01-23T20:35:09.493Z,59.25
2018-01-23T20:37:37.963Z,59.82
2018-01-23T20:40:05.853Z,58.98
2018-01-23T20:42:35.101Z,59.77
2018-01-23T20:45:03.465Z,58.86
2018-01-23T20:47:32.347Z,59.70
2018-01-23T20:50:00.297Z,59.59
2018-01-23T20:52:28.560Z,59.74
2018-01-23T20:54:57.379Z,58.69
2018-01-23T20:57:26.129Z,59.21
2018-01-23T20:59:54.257Z,58.43
2018-01-23T21:02:23.641Z,58.99
2018-01-23T21:04:53.249Z,60.05
2018-01-23T21:07:22.836Z,59.44
2018-01-23T21:09:51.276Z,58.95
2018-01-23T21:12:18.931Z,58.79
2018-01-23T21:14:46.822Z,59.27
2018-01-23T21:17:14.710Z,58.55
2018-01-23T21:19:43.242Z,58.41
2018-01-23T21:22:10.836Z,58.70
2018-01-23T21:24:38.598Z,58.97
2018-01-23T21:27:06.234Z,59.40
2018-01-23T21:29:34.024Z,58.51
2018-01-23T21:32:02.517Z,58.98
2018-01-23T21:34:30.780Z,58.29
2018-01-23T21:36:58.675Z,58.66
2018-01-23T21:39:26.410Z,58.57
2018-01-23T21:41:54.161Z,58.96
2018-01-23T21:44:21.957Z,58.13
2018-01-23T21:46:49.910Z,58.35
2018-01-23T21:49:17.913Z,58.96
2018-01-23T21:51:46.159Z,58.98
2018-01-23T21:54:14.102Z,59.69
2018-01-23T21:56:41.996Z,58.73
2018-01-23T21:59:09.750Z,57.92
2018-01-23T22:01:37.372Z,58.82
2018-01-23T22:04:05.169Z,58.97
2018-01-23T22:06:32.838Z,59.08
2018-01-23T22:09:01.221Z,59.32
2018-01-23T22:11:29.612Z,59.50
2018-01-23T22:13:57.273Z,58.68
2018-01-23T22:16:25.125Z,58.27
2018-01-23T22:18:52.902Z,58.06
2018-01-23T22:21:20.855Z,59.04
2018-01-23T22:23:48.695Z,58.31
2018-01-23T22:26:16.295Z,58.31
2018-01-23T22:28:44.047Z,57.97
2018-01-23T22:31:11.728Z,57.38
2018-01-23T22:33:39.455Z,58.15
2018-01-23T22:36:07.136Z,57.05
2018-01-23T22:38:34.737Z,56.83
2018-01-23T22:41:02.351Z,57.67
2018-01-23T22:43:29.870Z,57.58
2018-01-23T22:45:57.417Z,58.40
2018-01-23T22:48:24.920Z,58.74
2018-01-23T22:50:52.425Z,58.66
2018-01-23T22:53:19.951Z,58.99
2018-01-23T22:55:47.557Z,58.83
2018-01-23T22:58:15.347Z,58.80
2018-01-23T23:00:42.860Z,58.85
2018-01-23T23:03:10.385Z,59.42
2018-01-23T23:05:37.943Z,59.33
2018-01-23T23:08:05.449Z,58.72
2018-01-23T23:10:33.166Z,58.82
2018-01-23T23:13:00.672Z,59.41
2018-01-23T23:15:28.709Z,58.05
2018-01-23T23:17:56.353Z,57.93
2018-01-23T23:20:25.720Z,58.63
2018-01-23T23:22:53.608Z,57.63
2018-01-23T23:25:21.182Z,58.47
2018-01-23T23:27:48.786Z,58.77
2018-01-23T23:30:16.304Z,58.82
2018-01-23T23:32:43.803Z,58.84
2018-01-23T23:35:11.422Z,58.62
2018-01-23T23:37:38.925Z,59.13
2018-01-23T23:40:06.429Z,59.59
2018-01-23T23:42:33.973Z,59.63
2018-01-23T23:45:01.467Z,59.72
2018-01-23T23:47:29.001Z,58.94
2018-01-23T23:49:56.516Z,58.88
2018-01-23T23:52:24.230Z,58.67
2018-01-23T23:54:51.806Z,58.44
2018-01-23T23:57:19.371Z,58.93
2018-01-23T23:59:47.084Z,58.63
